createdAt,value
2022-10-30T00:07:00.249Z,11.37
2022-10-30T00:17:04.034Z,11.49
2022-10-30T00:27:07.806Z,11.49
2022-10-30T00:37:11.475Z,11.40
2022-10-30T00:47:19.539Z,11.22
2022-10-30T00:57:23.629Z,11.20
2022-10-30T01:07:27.962Z,11.09
2022-10-30T01:17:51.806Z,11.05
2022-10-30T01:27:54.844Z,11.04
2022-10-30T01:38:18.773Z,10.95
2022-10-30T01:48:57.234Z,10.88
2022-10-30T01:59:00.844Z,10.90
2022-10-30T02:09:04.760Z,10.78
2022-10-30T02:19:08.829Z,10.77
2022-10-30T02:29:12.684Z,10.75
2022-10-30T02:39:16.648Z,10.71
2022-10-30T02:49:20.669Z,10.79
2022-10-30T02:59:24.265Z,10.79
2022-10-30T03:09:28.483Z,10.75
2022-10-30T03:19:50.365Z,10.73
2022-10-30T03:29:53.920Z,10.68
2022-10-30T03:40:15.951Z,10.66
2022-10-30T03:50:19.600Z,10.60
2022-10-30T04:00:41.519Z,10.60
2022-10-30T04:11:03.655Z,10.64
2022-10-30T04:21:07.408Z,10.51
2022-10-30T04:31:11.367Z,10.37
2022-10-30T04:41:15.347Z,10.44
2022-10-30T04:51:19.694Z,10.41
2022-10-30T05:01:41.771Z,10.33
2022-10-30T05:11:45.416Z,10.25
2022-10-30T05:21:49.038Z,10.22
2022-10-30T05:31:52.739Z,10.19
2022-10-30T05:41:56.241Z,10.10
2022-10-30T05:51:59.795Z,10.07
2022-10-30T06:02:03.372Z,10.00
2022-10-30T06:12:07.096Z,10.06
2022-10-30T06:22:10.570Z,10.15
2022-10-30T06:32:14.191Z,10.26
2022-10-30T06:42:43.556Z,10.33
2022-10-30T06:52:47.958Z,10.48
2022-10-30T07:03:09.784Z,11.18
2022-10-30T07:13:13.505Z,11.85
2022-10-30T07:23:35.218Z,12.06
2022-10-30T07:33:38.777Z,13.34
2022-10-30T07:43:42.715Z,14.53
2022-10-30T07:53:46.318Z,15.61
2022-10-30T08:03:49.873Z,15.83
2022-10-30T08:13:53.456Z,15.44
2022-10-30T08:23:57.170Z,15.38
2022-10-30T08:34:18.902Z,15.98
2022-10-30T08:44:40.719Z,16.57
2022-10-30T08:54:44.313Z,17.20
2022-10-30T09:04:46.456Z,17.65
2022-10-30T09:14:50.175Z,18.11
2022-10-30T09:24:53.916Z,18.31
2022-10-30T09:34:57.459Z,18.43
2022-10-30T09:55:40.345Z,19.14
2022-10-30T10:05:48.725Z,19.14
2022-10-30T10:15:51.516Z,19.06
2022-10-30T10:25:58.507Z,19.03
2022-10-30T10:36:14.480Z,19.07
2022-10-30T10:46:38.130Z,19.01
2022-10-30T10:56:46.808Z,19.33
2022-10-30T11:06:52.020Z,19.55
2022-10-30T11:17:00.804Z,19.79
2022-10-30T11:27:18.183Z,19.82
2022-10-30T11:37:30.309Z,20.02
2022-10-30T11:47:36.152Z,20.42
2022-10-30T11:57:43.729Z,20.59
2022-10-30T12:07:46.978Z,20.60
2022-10-30T12:17:53.331Z,20.45
2022-10-30T12:27:59.729Z,20.29
2022-10-30T12:38:06.342Z,20.42
2022-10-30T12:48:16.629Z,20.45
2022-10-30T12:58:20.818Z,20.42
2022-10-30T13:08:23.552Z,20.47
2022-10-30T13:18:30.986Z,20.41
2022-10-30T13:28:36.479Z,20.23
2022-10-30T13:39:00.405Z,20.09
2022-10-30T13:49:10.194Z,19.93
2022-10-30T13:59:20.819Z,19.77
2022-10-30T14:09:31.015Z,19.61
2022-10-30T14:19:52.515Z,19.46
2022-10-30T14:30:17.582Z,19.36
2022-10-30T14:40:41.896Z,19.18
2022-10-30T14:50:51.737Z,18.95
2022-10-30T15:01:25.199Z,18.74
2022-10-30T15:11:33.378Z,18.49
2022-10-30T15:21:41.334Z,18.22
2022-10-30T15:31:45.501Z,17.94
2022-10-30T15:41:53.185Z,17.57
2022-10-30T15:52:15.784Z,17.09
2022-10-30T16:02:21.509Z,16.81
2022-10-30T16:12:24.697Z,16.59
2022-10-30T16:22:31.806Z,16.38
2022-10-30T16:32:35.709Z,16.04
2022-10-30T16:42:59.898Z,15.75
2022-10-30T16:53:06.102Z,15.69
2022-10-30T17:03:37.096Z,15.68
2022-10-30T17:13:59.378Z,15.61
2022-10-30T17:24:03.276Z,15.61
2022-10-30T17:34:18.345Z,15.65
2022-10-30T17:44:25.285Z,15.56
2022-10-30T17:54:28.606Z,15.45
2022-10-30T18:04:32.484Z,15.32
2022-10-30T18:14:36.189Z,15.12
2022-10-30T18:24:59.144Z,14.91
2022-10-30T18:35:08.478Z,14.80
2022-10-30T18:45:17.250Z,14.68
2022-10-30T18:55:19.901Z,14.59
2022-10-30T19:05:26.655Z,14.33
2022-10-30T19:15:33.907Z,14.15
2022-10-30T19:25:36.926Z,14.20
2022-10-30T19:35:40.499Z,14.22
2022-10-30T19:45:44.429Z,14.13
2022-10-30T19:56:09.733Z,13.95
2022-10-30T20:06:15.199Z,13.75
2022-10-30T20:16:37.229Z,13.60
2022-10-30T20:26:41.719Z,13.50
2022-10-30T20:36:45.338Z,13.44
2022-10-30T20:47:07.452Z,13.35
2022-10-30T20:57:10.366Z,13.34
2022-10-30T21:17:18.451Z,13.39
2022-10-30T21:27:22.133Z,13.41
2022-10-30T21:37:25.669Z,13.42
2022-10-30T21:47:29.245Z,13.40
2022-10-30T21:57:32.976Z,13.33
2022-10-30T22:07:36.896Z,13.29
2022-10-30T22:17:40.493Z,13.24
2022-10-30T22:27:46.557Z,13.21
2022-10-30T22:37:50.536Z,13.17
2022-10-30T22:47:54.174Z,13.06
2022-10-30T22:57:58.258Z,12.97
2022-10-30T23:08:02.555Z,12.84
2022-10-30T23:18:06.472Z,12.67
2022-10-30T23:28:11.067Z,12.57
2022-10-30T23:38:15.054Z,12.47
2022-10-30T23:48:18.904Z,12.35
2022-10-30T23:58:22.663Z,12.03
